createdAt,value
2022-09-06T00:00:30.156Z,5.47
2022-09-06T00:02:59.117Z,7.45
2022-09-06T00:05:27.239Z,5.43
2022-09-06T00:07:55.362Z,5.80
2022-09-06T00:10:24.721Z,7.60
2022-09-06T00:12:52.858Z,6.20
2022-09-06T00:15:22.375Z,5.75
2022-09-06T00:17:51.671Z,6.10
2022-09-06T00:20:19.674Z,6.70
2022-09-06T00:22:47.649Z,7.18
2022-09-06T00:25:15.749Z,5.35
2022-09-06T00:27:45.107Z,6.63
2022-09-06T00:30:13.965Z,5.85
2022-09-06T00:32:41.963Z,7.45
2022-09-06T00:35:09.976Z,6.82
2022-09-06T00:37:38.923Z,5.68
2022-09-06T00:40:08.870Z,5.85
2022-09-06T00:42:37.242Z,5.85
2022-09-06T00:45:09.262Z,5.75
2022-09-06T00:47:39.881Z,6.15
2022-09-06T00:50:08.983Z,5.93
2022-09-06T00:52:39.488Z,6.18
2022-09-06T00:55:08.281Z,5.65
2022-09-06T00:57:36.483Z,4.38
2022-09-06T01:00:08.901Z,5.93
2022-09-06T01:02:39.271Z,8.50
2022-09-06T01:05:08.236Z,5.97
2022-09-06T01:07:51.731Z,6.00
2022-09-06T01:10:43.862Z,3.85
2022-09-06T01:13:26.667Z,7.13
2022-09-06T01:16:04.176Z,5.95
2022-09-06T01:18:44.341Z,7.20
2022-09-06T01:21:22.177Z,7.82
2022-09-06T01:24:17.782Z,8.48
2022-09-06T01:27:15.486Z,9.70
2022-09-06T01:29:49.892Z,10.45
2022-09-06T01:32:27.840Z,6.90
2022-09-06T01:35:04.065Z,8.80
2022-09-06T01:37:32.165Z,8.68
2022-09-06T01:40:00.209Z,7.55
2022-09-06T01:42:31.985Z,6.85
2022-09-06T01:45:04.576Z,7.55
2022-09-06T01:47:42.846Z,7.22
2022-09-06T01:50:35.995Z,8.05
2022-09-06T01:53:16.115Z,6.80
2022-09-06T01:55:52.050Z,8.90
2022-09-06T01:58:37.170Z,6.45
2022-09-06T02:01:14.070Z,7.88
2022-09-06T02:03:51.221Z,8.40
2022-09-06T02:06:23.732Z,7.20
2022-09-06T02:08:56.830Z,6.57
2022-09-06T02:11:28.134Z,6.47
2022-09-06T02:14:00.010Z,6.72
2022-09-06T02:16:33.471Z,9.83
2022-09-06T02:19:07.595Z,10.23
2022-09-06T02:21:42.849Z,9.07
2022-09-06T02:24:16.358Z,7.57
2022-09-06T02:26:45.615Z,10.60
2022-09-06T02:29:14.138Z,9.30
2022-09-06T02:31:46.780Z,9.10
2022-09-06T02:34:18.232Z,10.43
2022-09-06T02:36:47.226Z,10.32
2022-09-06T02:39:15.761Z,8.20
2022-09-06T02:41:46.563Z,9.48
2022-09-06T02:44:15.041Z,8.50
2022-09-06T02:46:44.336Z,9.27
2022-09-06T02:49:12.326Z,9.18
2022-09-06T02:51:41.070Z,8.68
2022-09-06T02:54:09.275Z,9.52
2022-09-06T02:56:37.731Z,10.23
2022-09-06T02:59:05.868Z,7.80
2022-09-06T03:01:34.435Z,8.88
2022-09-06T03:04:06.453Z,9.27
2022-09-06T03:06:35.813Z,7.90
2022-09-06T03:09:03.931Z,8.50
2022-09-06T03:11:32.107Z,9.65
2022-09-06T03:14:00.100Z,10.35
2022-09-06T03:16:28.263Z,7.28
2022-09-06T03:18:56.339Z,9.07
2022-09-06T03:21:25.785Z,7.05
2022-09-06T03:23:54.735Z,8.85
2022-09-06T03:26:22.790Z,10.02
2022-09-06T03:28:51.576Z,8.70
2022-09-06T03:31:19.692Z,9.35
2022-09-06T03:33:47.868Z,9.32
2022-09-06T03:36:15.965Z,9.23
2022-09-06T03:38:45.402Z,9.02
2022-09-06T03:41:14.749Z,10.10
2022-09-06T03:43:44.084Z,9.60
2022-09-06T03:46:12.160Z,9.93
2022-09-06T03:48:40.221Z,11.40
2022-09-06T03:51:08.220Z,10.25
2022-09-06T03:53:36.210Z,10.63
2022-09-06T03:56:05.928Z,10.05
2022-09-06T03:58:34.584Z,9.90
2022-09-06T04:01:08.051Z,9.25
2022-09-06T04:03:36.746Z,10.20
2022-09-06T04:06:06.260Z,9.90
2022-09-06T04:08:35.331Z,9.38
2022-09-06T04:11:03.349Z,9.27
2022-09-06T04:13:34.261Z,10.88
2022-09-06T04:16:02.849Z,9.77
2022-09-06T04:18:30.811Z,11.05
2022-09-06T04:20:59.419Z,9.07
2022-09-06T04:23:29.095Z,10.85
2022-09-06T04:25:59.361Z,9.55
2022-09-06T04:28:28.337Z,10.23
2022-09-06T04:31:04.075Z,8.68
2022-09-06T04:33:34.268Z,9.45
2022-09-06T04:36:04.007Z,12.10
2022-09-06T04:38:38.376Z,11.10
2022-09-06T04:41:07.328Z,9.27
2022-09-06T04:43:35.288Z,9.52
2022-09-06T04:46:13.013Z,8.60
2022-09-06T04:48:41.249Z,12.25
2022-09-06T04:51:09.197Z,10.82
2022-09-06T04:53:37.374Z,11.25
2022-09-06T04:56:05.977Z,10.60
2022-09-06T04:58:34.059Z,10.85
2022-09-06T05:01:02.095Z,11.00
2022-09-06T05:03:31.563Z,12.70
2022-09-06T05:06:10.372Z,8.98
2022-09-06T05:08:39.578Z,11.43
2022-09-06T05:11:08.724Z,10.48
2022-09-06T05:13:37.067Z,12.07
2022-09-06T05:16:07.013Z,8.98
2022-09-06T05:18:37.065Z,11.48
2022-09-06T05:21:05.587Z,9.43
2022-09-06T05:23:33.508Z,12.50
2022-09-06T05:26:01.490Z,11.45
2022-09-06T05:28:29.972Z,10.95
2022-09-06T05:31:07.315Z,10.85
2022-09-06T05:33:36.862Z,10.20
2022-09-06T05:36:05.365Z,11.40
2022-09-06T05:38:33.981Z,10.30
2022-09-06T05:41:02.197Z,10.98
2022-09-06T05:43:30.275Z,10.18
2022-09-06T05:45:58.407Z,12.18
2022-09-06T05:48:26.524Z,11.30
2022-09-06T05:51:02.845Z,11.98
2022-09-06T05:53:35.843Z,11.88
2022-09-06T05:56:05.071Z,10.55
2022-09-06T05:58:33.249Z,10.52
2022-09-06T06:01:09.038Z,10.80
2022-09-06T06:03:37.193Z,11.65
2022-09-06T06:06:07.146Z,11.65
2022-09-06T06:08:36.159Z,13.60
2022-09-06T06:11:04.184Z,11.95
2022-09-06T06:13:34.994Z,12.25
2022-09-06T06:16:04.383Z,14.30
2022-09-06T06:18:32.466Z,16.13
2022-09-06T06:21:13.652Z,12.75
2022-09-06T06:23:42.912Z,11.32
2022-09-06T06:26:11.946Z,12.25
2022-09-06T06:28:41.054Z,11.98
2022-09-06T06:31:10.995Z,12.45
2022-09-06T06:33:39.576Z,11.48
2022-09-06T06:36:20.689Z,13.63
2022-09-06T06:38:51.248Z,12.27
2022-09-06T06:41:21.368Z,10.82
2022-09-06T06:43:49.443Z,10.68
2022-09-06T06:46:19.747Z,8.90
2022-09-06T06:48:51.553Z,12.77
2022-09-06T06:51:24.165Z,10.88
2022-09-06T06:53:54.135Z,12.00
2022-09-06T06:56:23.929Z,10.73
2022-09-06T06:58:55.088Z,9.45
2022-09-06T07:01:23.731Z,11.02
2022-09-06T07:03:52.226Z,10.85
2022-09-06T07:06:21.314Z,13.30
2022-09-06T07:08:49.680Z,9.65
2022-09-06T07:11:22.924Z,8.73
2022-09-06T07:13:53.503Z,9.63
2022-09-06T07:16:23.457Z,10.70
2022-09-06T07:18:52.670Z,10.30
2022-09-06T07:21:41.701Z,9.38
2022-09-06T07:24:10.439Z,9.93
2022-09-06T07:29:31.302Z,8.10
2022-09-06T07:32:15.725Z,10.43
2022-09-06T07:34:44.276Z,9.20
2022-09-06T07:37:12.287Z,10.40
2022-09-06T07:39:41.383Z,11.20
2022-09-06T07:42:10.935Z,12.75
2022-09-06T07:44:39.508Z,10.18
2022-09-06T07:55:33.475Z,10.20
2022-09-06T07:58:03.170Z,9.43
2022-09-06T08:00:31.760Z,9.25
2022-09-06T08:03:00.096Z,10.15
2022-09-06T08:11:06.486Z,9.23
2022-09-06T08:13:36.363Z,8.50
2022-09-06T08:16:06.739Z,11.27
2022-09-06T08:18:35.398Z,9.15
2022-09-06T08:21:12.619Z,9.52
2022-09-06T08:23:43.280Z,9.95
2022-09-06T08:26:12.037Z,10.88
2022-09-06T08:28:41.463Z,8.98
2022-09-06T08:31:11.148Z,10.93
2022-09-06T08:33:40.603Z,11.50
2022-09-06T08:36:09.825Z,10.10
2022-09-06T08:38:38.539Z,10.32
2022-09-06T08:41:09.368Z,8.60
2022-09-06T08:43:38.812Z,9.00
2022-09-06T08:46:10.576Z,9.45
2022-09-06T08:48:40.072Z,8.63
2022-09-06T08:51:39.260Z,8.70
2022-09-06T08:54:13.378Z,7.95
2022-09-06T08:56:57.810Z,9.38
2022-09-06T08:59:25.900Z,9.82
2022-09-06T09:02:04.391Z,9.32
2022-09-06T09:04:34.521Z,7.82
2022-09-06T09:07:18.577Z,7.88
2022-09-06T09:09:47.745Z,10.40
2022-09-06T09:12:21.357Z,12.20
2022-09-06T09:14:52.755Z,8.57
2022-09-06T09:17:26.533Z,9.00
2022-09-06T09:19:55.160Z,9.63
2022-09-06T09:22:25.564Z,9.13
2022-09-06T09:24:54.887Z,7.68
2022-09-06T09:27:26.535Z,8.38
2022-09-06T09:32:51.034Z,9.40
2022-09-06T09:35:27.751Z,8.40
2022-09-06T09:38:11.838Z,10.13
2022-09-06T09:40:42.214Z,7.25
2022-09-06T09:43:14.584Z,9.75
2022-09-06T09:45:44.119Z,7.78
2022-09-06T09:48:27.259Z,8.02
2022-09-06T09:50:56.548Z,8.23
2022-09-06T09:53:26.183Z,8.10
2022-09-06T09:55:58.766Z,7.43
2022-09-06T10:09:22.861Z,7.18
2022-09-06T10:11:56.055Z,6.88
2022-09-06T10:14:30.666Z,9.20
2022-09-06T10:16:59.888Z,5.75
2022-09-06T10:19:39.747Z,6.30
2022-09-06T10:22:20.173Z,4.97
2022-09-06T10:25:05.349Z,6.00
2022-09-06T10:27:34.126Z,6.25
2022-09-06T10:30:05.671Z,5.93
2022-09-06T10:32:42.966Z,4.97
2022-09-06T10:35:21.257Z,6.82
2022-09-06T10:37:55.682Z,6.10
2022-09-06T10:40:31.738Z,6.07
2022-09-06T10:43:02.412Z,6.10
2022-09-06T10:45:44.390Z,3.63
2022-09-06T10:48:18.157Z,4.70
2022-09-06T10:50:53.091Z,6.35
2022-09-06T10:53:42.387Z,4.43
2022-09-06T10:56:16.807Z,6.15
2022-09-06T11:01:48.200Z,6.80
2022-09-06T11:04:24.660Z,4.82
2022-09-06T11:06:58.704Z,4.03
2022-09-06T11:09:33.784Z,4.32
2022-09-06T11:12:08.968Z,4.72
2022-09-06T11:14:39.305Z,5.22
2022-09-06T11:17:12.165Z,5.22
2022-09-06T11:19:47.937Z,4.22
2022-09-06T11:22:45.640Z,4.15
2022-09-06T11:25:45.190Z,5.03
2022-09-06T11:28:18.356Z,4.65
2022-09-06T11:30:48.855Z,7.32
2022-09-06T11:33:25.675Z,5.30
2022-09-06T11:35:55.281Z,4.75
2022-09-06T11:38:27.614Z,6.00
2022-09-06T11:43:47.957Z,3.70
2022-09-06T11:46:53.357Z,5.45
2022-09-06T11:49:41.844Z,4.13
2022-09-06T11:52:57.094Z,4.65
2022-09-06T11:55:33.396Z,4.05
2022-09-06T11:58:04.924Z,4.95
2022-09-06T12:00:34.651Z,3.77
2022-09-06T12:06:16.249Z,4.18
2022-09-06T12:08:44.767Z,4.57
2022-09-06T12:11:37.890Z,4.60
2022-09-06T12:14:07.636Z,5.20
2022-09-06T12:17:30.369Z,4.13
2022-09-06T12:20:07.272Z,3.60
2022-09-06T12:23:03.727Z,7.07
2022-09-06T12:25:56.385Z,2.80
2022-09-06T12:31:01.307Z,4.38
2022-09-06T12:33:32.816Z,4.15
2022-09-06T12:36:19.285Z,5.50
2022-09-06T12:38:58.750Z,4.43
2022-09-06T12:41:29.868Z,5.97
2022-09-06T12:44:00.797Z,6.25
2022-09-06T12:46:31.268Z,5.32
2022-09-06T12:49:10.829Z,5.15
2022-09-06T12:51:41.150Z,6.85
2022-09-06T12:54:21.873Z,5.78
2022-09-06T12:56:50.980Z,6.28
2022-09-06T12:59:24.617Z,4.15
2022-09-06T13:02:00.513Z,6.10
2022-09-06T13:04:35.024Z,5.72
2022-09-06T13:07:04.999Z,4.15
2022-09-06T13:09:34.390Z,8.02
2022-09-06T13:12:07.836Z,6.93
2022-09-06T13:14:37.840Z,7.55
2022-09-06T13:17:06.353Z,5.10
2022-09-06T13:19:36.811Z,6.65
2022-09-06T13:22:07.724Z,6.68
2022-09-06T13:24:49.141Z,3.50
2022-09-06T13:27:28.425Z,5.82
2022-09-06T13:29:59.967Z,6.07
2022-09-06T13:32:28.940Z,5.78
2022-09-06T13:35:00.032Z,5.05
2022-09-06T13:37:33.786Z,4.25
2022-09-06T13:40:06.240Z,6.25
2022-09-06T13:42:37.056Z,7.47
2022-09-06T13:45:24.876Z,4.10
2022-09-06T13:48:03.435Z,6.00
2022-09-06T13:50:43.454Z,3.03
2022-09-06T13:53:11.549Z,4.97
2022-09-06T13:55:40.158Z,4.25
2022-09-06T13:58:09.197Z,5.28
2022-09-06T14:00:39.402Z,5.93
2022-09-06T14:03:07.472Z,6.43
2022-09-06T14:05:38.987Z,6.82
2022-09-06T14:08:07.145Z,5.32
2022-09-06T14:10:35.229Z,2.90
2022-09-06T14:13:03.252Z,3.92
2022-09-06T14:15:31.417Z,5.78
2022-09-06T14:18:00.817Z,2.28
2022-09-06T14:20:28.884Z,4.10
2022-09-06T14:22:56.988Z,4.03
2022-09-06T14:25:25.048Z,3.65
2022-09-06T14:27:53.080Z,5.80
2022-09-06T14:30:21.113Z,3.75
2022-09-06T14:32:49.194Z,4.15
2022-09-06T14:35:18.597Z,4.00
2022-09-06T14:37:46.731Z,6.25
2022-09-06T14:40:15.685Z,4.40
2022-09-06T14:42:46.570Z,3.22
2022-09-06T14:45:17.065Z,3.75
2022-09-06T14:47:45.120Z,2.92
2022-09-06T14:50:13.202Z,2.78
2022-09-06T14:52:42.613Z,2.60
2022-09-06T14:55:10.961Z,4.45
2022-09-06T14:57:39.188Z,9.05
2022-09-06T15:00:10.340Z,3.97
2022-09-06T15:02:39.319Z,5.63
2022-09-06T15:05:09.875Z,8.57
2022-09-06T15:07:38.888Z,7.28
2022-09-06T15:10:08.982Z,3.97
2022-09-06T15:12:38.181Z,4.78
2022-09-06T15:15:07.156Z,3.67
2022-09-06T15:17:35.490Z,3.88
2022-09-06T15:20:04.228Z,4.45
2022-09-06T15:22:32.257Z,5.53
2022-09-06T15:25:00.284Z,4.70
2022-09-06T15:27:30.130Z,3.30
2022-09-06T15:29:58.293Z,5.35
2022-09-06T15:32:26.303Z,3.38
2022-09-06T15:34:54.935Z,5.85
2022-09-06T15:37:34.829Z,3.40
2022-09-06T15:40:03.358Z,3.75
2022-09-06T15:42:32.818Z,4.07
2022-09-06T15:45:00.933Z,3.60
2022-09-06T15:47:29.163Z,5.82
2022-09-06T15:49:57.480Z,5.63
2022-09-06T15:52:25.516Z,5.20
2022-09-06T15:55:10.826Z,4.57
2022-09-06T15:57:40.271Z,7.22
2022-09-06T16:00:09.601Z,6.47
2022-09-06T16:02:37.745Z,4.43
2022-09-06T16:05:06.776Z,4.88
2022-09-06T16:07:34.782Z,5.57
2022-09-06T16:10:02.829Z,5.30
2022-09-06T16:12:30.825Z,4.30
2022-09-06T16:15:00.310Z,4.68
2022-09-06T16:17:31.259Z,4.38
2022-09-06T16:20:01.729Z,6.28
2022-09-06T16:22:30.813Z,6.20
2022-09-06T16:24:58.797Z,3.78
2022-09-06T16:27:26.986Z,4.05
2022-09-06T16:29:55.229Z,4.40
2022-09-06T16:32:24.697Z,4.68
2022-09-06T16:34:52.797Z,4.95
2022-09-06T16:37:20.826Z,5.38
2022-09-06T16:39:48.933Z,4.18
2022-09-06T16:42:17.021Z,3.83
2022-09-06T16:44:45.012Z,5.80
2022-09-06T16:47:16.442Z,4.50
2022-09-06T16:49:46.258Z,4.37
2022-09-06T16:52:14.506Z,6.00
2022-09-06T16:54:42.528Z,4.38
2022-09-06T16:57:10.613Z,6.35
2022-09-06T16:59:38.633Z,5.03
2022-09-06T17:02:07.367Z,5.28
2022-09-06T17:04:35.831Z,4.57
2022-09-06T17:07:05.217Z,7.45
2022-09-06T17:09:34.490Z,6.05
2022-09-06T17:12:02.760Z,5.22
2022-09-06T17:14:30.715Z,7.78
2022-09-06T17:17:07.479Z,5.45
2022-09-06T17:19:37.647Z,6.15
2022-09-06T17:22:07.063Z,6.72
2022-09-06T17:24:35.722Z,5.45
2022-09-06T17:27:04.098Z,6.65
2022-09-06T17:29:32.872Z,4.95
2022-09-06T17:32:00.853Z,4.68
2022-09-06T17:34:28.940Z,8.00
2022-09-06T17:36:57.414Z,6.45
2022-09-06T17:39:26.904Z,5.90
2022-09-06T17:41:55.332Z,6.60
2022-09-06T17:44:26.464Z,8.18
2022-09-06T17:47:12.436Z,6.40
2022-09-06T17:49:41.404Z,9.05
2022-09-06T17:52:09.649Z,7.47
2022-09-06T17:54:39.160Z,7.70
2022-09-06T17:57:07.227Z,5.32
2022-09-06T17:59:36.117Z,7.25
2022-09-06T18:02:05.242Z,4.85
2022-09-06T18:04:33.489Z,7.10
2022-09-06T18:07:02.041Z,4.18
2022-09-06T18:09:30.226Z,4.72
2022-09-06T18:11:59.964Z,5.55
2022-09-06T18:14:28.680Z,5.85
2022-09-06T18:16:57.158Z,4.25
2022-09-06T18:19:26.188Z,4.93
2022-09-06T18:21:57.337Z,5.18
2022-09-06T18:24:26.327Z,5.95
2022-09-06T18:26:54.387Z,5.35
2022-09-06T18:29:23.895Z,6.57
2022-09-06T18:31:53.666Z,4.53
2022-09-06T18:34:22.021Z,4.70
2022-09-06T18:36:50.103Z,5.85
2022-09-06T18:39:19.125Z,5.18
2022-09-06T18:42:07.001Z,4.97
2022-09-06T18:44:38.018Z,5.32
2022-09-06T18:47:07.804Z,6.80
2022-09-06T18:49:39.441Z,6.00
2022-09-06T18:52:10.244Z,5.75
2022-09-06T18:54:38.315Z,8.02
2022-09-06T18:57:06.369Z,7.93
2022-09-06T18:59:34.384Z,6.25
2022-09-06T19:02:03.903Z,6.10
2022-09-06T19:04:32.433Z,8.13
2022-09-06T19:07:02.341Z,7.00
2022-09-06T19:09:30.436Z,5.20
2022-09-06T19:11:58.465Z,6.53
2022-09-06T19:14:26.618Z,8.63
2022-09-06T19:16:54.894Z,7.07
2022-09-06T19:19:24.534Z,6.82
2022-09-06T19:21:52.560Z,5.20
2022-09-06T19:24:22.811Z,5.13
2022-09-06T19:26:51.529Z,7.38
2022-09-06T19:29:20.527Z,5.75
2022-09-06T19:31:49.434Z,6.47
2022-09-06T19:34:17.513Z,7.13
2022-09-06T19:36:50.085Z,7.32
2022-09-06T19:39:18.951Z,5.88
2022-09-06T19:41:47.805Z,7.43
2022-09-06T19:44:18.550Z,7.35
2022-09-06T19:46:47.443Z,6.18
2022-09-06T19:49:17.147Z,6.57
2022-09-06T19:51:48.969Z,5.97
2022-09-06T19:54:18.050Z,5.90
2022-09-06T19:56:47.262Z,7.13
2022-09-06T19:59:17.739Z,5.68
2022-09-06T20:01:47.274Z,6.82
2022-09-06T20:04:16.175Z,7.30
2022-09-06T20:06:44.241Z,5.53
2022-09-06T20:09:15.951Z,7.28
2022-09-06T20:11:44.735Z,7.15
2022-09-06T20:14:13.570Z,8.27
2022-09-06T20:16:42.978Z,9.07
2022-09-06T20:19:14.571Z,7.70
2022-09-06T20:21:43.129Z,9.63
2022-09-06T20:24:11.426Z,6.53
2022-09-06T20:26:40.714Z,10.23
2022-09-06T20:29:10.508Z,8.00
2022-09-06T20:31:39.358Z,11.95
2022-09-06T20:34:08.384Z,8.65
2022-09-06T20:36:38.226Z,8.80
2022-09-06T20:39:06.374Z,7.88
2022-09-06T20:41:34.999Z,7.75
2022-09-06T20:44:04.445Z,12.50
2022-09-06T20:46:36.452Z,10.65
2022-09-06T20:49:07.077Z,8.45
2022-09-06T20:51:38.589Z,9.07
2022-09-06T20:54:07.263Z,10.35
2022-09-06T20:56:39.853Z,8.52
2022-09-06T21:01:44.016Z,12.65
2022-09-06T21:04:14.924Z,8.30
2022-09-06T21:06:56.566Z,9.68
2022-09-06T21:09:24.745Z,9.18
2022-09-06T21:11:54.298Z,9.07
2022-09-06T21:14:23.920Z,10.80
2022-09-06T21:16:52.065Z,10.10
2022-09-06T21:19:20.140Z,11.55
2022-09-06T21:21:48.968Z,10.27
2022-09-06T21:24:18.200Z,11.45
2022-09-06T21:26:46.327Z,14.15
2022-09-06T21:29:14.503Z,13.25
2022-09-06T21:31:43.973Z,16.55
2022-09-06T21:34:17.021Z,13.88
2022-09-06T21:36:45.976Z,14.00
2022-09-06T21:39:14.231Z,15.45
2022-09-06T21:41:43.651Z,14.60
2022-09-06T21:44:12.233Z,15.80
2022-09-06T21:46:41.501Z,12.40
2022-09-06T21:49:12.799Z,12.82
2022-09-06T21:51:41.551Z,12.57
2022-09-06T21:54:09.967Z,15.32
2022-09-06T21:56:42.336Z,14.70
2022-09-06T21:59:10.978Z,12.70
2022-09-06T22:01:40.401Z,14.32
2022-09-06T22:04:11.985Z,11.93
2022-09-06T22:06:40.683Z,14.50
2022-09-06T22:09:12.125Z,12.73
2022-09-06T22:11:42.085Z,15.75
2022-09-06T22:14:12.336Z,10.98
2022-09-06T22:16:44.108Z,12.20
2022-09-06T22:19:14.147Z,12.57
2022-09-06T22:21:42.203Z,11.88
2022-09-06T22:24:12.250Z,16.63
2022-09-06T22:26:41.640Z,10.75
2022-09-06T22:29:12.163Z,12.02
2022-09-06T22:31:41.045Z,10.07
2022-09-06T22:34:09.488Z,11.10
2022-09-06T22:36:39.197Z,12.35
2022-09-06T22:39:07.414Z,11.82
2022-09-06T22:41:42.943Z,12.90
2022-09-06T22:44:11.131Z,13.68
2022-09-06T22:46:40.528Z,14.63
2022-09-06T22:49:08.793Z,17.45
2022-09-06T22:51:38.214Z,17.85
2022-09-06T22:54:06.782Z,20.38
2022-09-06T22:56:35.734Z,19.95
2022-09-06T22:59:04.125Z,18.42
2022-09-06T23:01:34.030Z,18.25
2022-09-06T23:04:02.314Z,18.33
2022-09-06T23:06:30.294Z,19.77
2022-09-06T23:09:00.048Z,22.08
2022-09-06T23:11:28.713Z,15.80
2022-09-06T23:13:57.656Z,17.30
2022-09-06T23:16:27.156Z,17.35
2022-09-06T23:18:59.015Z,18.88
2022-09-06T23:21:27.599Z,18.88
2022-09-06T23:23:57.107Z,17.45
2022-09-06T23:26:29.603Z,26.35
2022-09-06T23:28:57.658Z,20.17
2022-09-06T23:31:27.352Z,20.45
2022-09-06T23:33:57.022Z,16.15
2022-09-06T23:36:25.361Z,15.45
2022-09-06T23:38:53.721Z,20.83
2022-09-06T23:41:21.757Z,18.60
2022-09-06T23:43:51.361Z,15.88
2022-09-06T23:46:20.939Z,15.13
2022-09-06T23:48:49.245Z,15.27
2022-09-06T23:51:17.240Z,12.48
2022-09-06T23:53:49.965Z,12.55
2022-09-06T23:56:17.978Z,15.90
2022-09-06T23:58:46.049Z,13.48
